TimeAKST,TemperatureF,Dew PointF,Humidity,Sea Level PressureIn,VisibilityMPH,Wind Direction,Wind SpeedMPH,Gust SpeedMPH,PrecipitationIn,Events,Conditions,WindDirDegrees,DateUTC
12:53 AM,41.0,19.0,41,29.58,10.0,East,12.7,18.4,N/A,,Overcast,80,2013-02-26 09:53:00
1:53 AM,41.0,19.9,43,29.56,10.0,ENE,11.5,19.6,N/A,,Overcast,70,2013-02-26 10:53:00
3:53 AM,41.0,19.9,43,29.51,10.0,ENE,11.5,-,N/A,,Overcast,60,2013-02-26 12:53:00
4:53 AM,42.1,18.0,38,29.49,10.0,ENE,10.4,18.4,N/A,,Overcast,70,2013-02-26 13:53:00
5:53 AM,42.1,19.0,40,29.49,10.0,ENE,9.2,20.7,N/A,,Overcast,70,2013-02-26 14:53:00
6:53 AM,41.0,19.9,43,29.49,10.0,East,6.9,-,N/A,,Overcast,90,2013-02-26 15:53:00
7:53 AM,37.9,21.9,53,29.48,10.0,ENE,9.2,-,N/A,,Overcast,60,2013-02-26 16:53:00
8:53 AM,39.9,23.0,51,29.46,10.0,NE,9.2,19.6,N/A,,Overcast,50,2013-02-26 17:53:00
9:53 AM,42.1,21.0,43,29.45,10.0,ESE,5.8,-,N/A,,Overcast,110,2013-02-26 18:53:00
10:53 AM,41.0,18.0,40,29.44,10.0,ENE,15.0,23.0,N/A,,Overcast,60,2013-02-26 19:53:00
11:53 AM,43.0,21.0,42,29.44,10.0,East,8.1,-,N/A,,Overcast,80,2013-02-26 20:53:00
12:53 PM,41.0,24.1,51,29.44,10.0,NE,11.5,20.7,N/A,,Overcast,50,2013-02-26 21:53:00
1:53 PM,42.1,21.9,45,29.42,10.0,ENE,8.1,-,N/A,,Overcast,70,2013-02-26 22:53:00
2:53 PM,36.0,24.1,62,29.44,6.0,NE,16.1,31.1,0.00,Snow,Light Snow,50,2013-02-26 23:53:00
3:53 PM,39.0,27.0,62,29.41,10.0,Variable,6.9,-,0.00,,Overcast,0,2013-02-27 00:53:00
4:53 PM,39.9,28.9,65,29.41,10.0,East,5.8,-,0.00,,Mostly Cloudy,90,2013-02-27 01:53:00
5:53 PM,39.9,28.0,63,29.40,10.0,ENE,9.2,20.7,N/A,,Mostly Cloudy,70,2013-02-27 02:53:00
6:53 PM,39.9,27.0,60,29.40,10.0,East,13.8,19.6,N/A,,Mostly Cloudy,90,2013-02-27 03:53:00
7:53 PM,41.0,25.0,53,29.38,10.0,East,13.8,25.3,N/A,,Mostly Cloudy,100,2013-02-27 04:53:00
8:53 PM,39.9,24.1,53,29.37,10.0,East,8.1,-,N/A,,Mostly Cloudy,80,2013-02-27 05:53:00
9:53 PM,37.9,28.0,68,29.37,10.0,East,8.1,20.7,0.00,Rain,Light Rain,90,2013-02-27 06:53:00
10:53 PM,37.0,25.0,62,29.34,10.0,ESE,3.5,-,0.00,,Mostly Cloudy,110,2013-02-27 07:53:00
11:53 PM,39.0,19.9,46,29.30,10.0,ENE,9.2,17.3,N/A,,Mostly Cloudy,60,2013-02-27 08:53:00